Time;durP1;ratioP1;P1;durP2;ratioP2;P2;SDS_P1;SDS_P2;PMS_P1;PMS_P2;Temp;Humidity;BMP_temperature;BMP_pressure;BME280_temperature;BME280_humidity;BME280_pressure;Samples;Min_cycle;Max_cycle;Signal;HPM_P1;HPM_P2
2022/09/01 00:01:53;;;;;;;13.38;11.98;;;;;;;19.95;63.96;94463.09;4209535;28;20044;-58
2022/09/01 00:04:02;;;;;;;19.27;13.68;;;;;;;19.95;63.96;94457.78;4211995;28;20617;-61
2022/09/01 00:06:10;;;;;;;17.30;11.60;;;;;;;19.52;63.87;94468.44;4211822;28;20070;-58
2022/09/01 00:08:12;;;;;;;15.18;12.25;;;;;;;19.32;64.89;94471.31;4212048;28;20051;-58
2022/09/01 00:10:19;;;;;;;13.00;11.32;;;;;;;19.21;65.11;94462.22;4213240;28;20079;-59
2022/09/01 00:12:22;;;;;;;14.00;11.93;;;;;;;19.25;65.16;94460.72;4202819;28;20695;-59
2022/09/01 00:14:28;;;;;;;17.67;12.33;;;;;;;19.32;65.09;94456.19;4208929;28;20070;-59
2022/09/01 00:16:31;;;;;;;13.30;11.98;;;;;;;19.40;64.55;94460.38;4204897;28;20479;-59
2022/09/01 00:18:34;;;;;;;15.35;11.55;;;;;;;19.40;64.28;94458.56;4196709;28;20044;-58
2022/09/01 00:20:36;;;;;;;12.95;11.63;;;;;;;19.33;63.95;94451.66;4200800;28;20056;-58
2022/09/01 00:22:38;;;;;;;14.75;11.80;;;;;;;19.22;64.13;94442.56;4207946;28;20048;-58
2022/09/01 00:24:40;;;;;;;16.08;11.85;;;;;;;19.15;64.43;94450.59;4211501;28;20056;-59
2022/09/01 00:26:42;;;;;;;13.43;11.30;;;;;;;18.92;64.54;94445.09;4205666;28;20052;-59
2022/09/01 00:28:44;;;;;;;14.75;10.95;;;;;;;18.51;66.06;94459.63;4205715;28;20113;-57
2022/09/01 00:30:46;;;;;;;13.25;11.88;;;;;;;18.06;67.52;94454.38;4204991;28;20537;-58
2022/09/01 00:32:48;;;;;;;16.65;12.15;;;;;;;18.02;68.32;94461.94;4205008;28;20119;-59
2022/09/01 00:34:50;;;;;;;13.93;12.43;;;;;;;17.90;69.21;94461.78;4201644;28;20062;-60
2022/09/01 00:36:51;;;;;;;16.48;13.70;;;;;;;17.74;70.49;94467.50;4209083;28;20048;-58
2022/09/01 00:38:53;;;;;;;16.80;13.50;;;;;;;17.79;69.91;94465.06;4210687;28;20536;-58
2022/09/01 00:40:55;;;;;;;16.02;13.02;;;;;;;17.93;70.12;94466.66;4209473;28;20793;-63
2022/09/01 00:42:57;;;;;;;14.75;13.15;;;;;;;18.15;69.35;94469.00;4206472;28;20037;-65
2022/09/01 00:44:59;;;;;;;16.80;12.35;;;;;;;18.36;68.01;94466.03;4206705;28;20060;-67
2022/09/01 00:47:01;;;;;;;16.02;12.48;;;;;;;18.56;67.56;94467.75;4209668;28;20044;-65
2022/09/01 00:49:28;;;;;;;13.38;11.55;;;;;;;18.74;66.57;94472.34;4210265;28;20058;-65
2022/09/01 00:51:32;;;;;;;15.93;11.75;;;;;;;18.89;65.68;94466.75;4211927;28;20054;-65
2022/09/01 00:53:35;;;;;;;16.17;11.43;;;;;;;18.94;65.13;94461.63;4209238;28;20039;-65
2022/09/01 00:55:37;;;;;;;15.02;12.02;;;;;;;18.98;65.06;94471.56;4202539;28;20052;-60
2022/09/01 00:57:39;;;;;;;15.10;11.32;;;;;;;19.03;64.77;94471.72;4203384;28;20044;-58
2022/09/01 00:59:50;;;;;;;15.45;11.80;;;;;;;19.11;64.56;94473.31;4211176;28;20060;-59
2022/09/01 01:01:52;;;;;;;13.32;11.52;;;;;;;19.18;64.50;94471.41;4211664;28;20048;-58
2022/09/01 01:03:54;;;;;;;14.82;11.45;;;;;;;19.26;64.40;94472.16;4207590;28;20036;-58
2022/09/01 01:05:57;;;;;;;15.57;12.40;;;;;;;19.26;64.69;94472.97;4209188;28;20052;-58
2022/09/01 01:08:03;;;;;;;;;;;;;;;19.15;65.21;94479.81;4208868;28;20621;-59
2022/09/01 01:10:06;;;;;;;15.35;13.10;;;;;;;18.67;67.05;94483.00;4207226;28;19923;-58
2022/09/01 01:12:12;;;;;;;21.02;13.30;;;;;;;18.34;68.32;94485.84;4211514;28;20096;-64
2022/09/01 01:14:16;;;;;;;17.92;14.50;;;;;;;18.05;69.80;94484.53;4204172;28;20063;-67
2022/09/01 01:16:18;;;;;;;15.93;13.93;;;;;;;17.88;70.21;94482.38;4206724;28;20392;-65
2022/09/01 01:18:20;;;;;;;16.58;14.88;;;;;;;17.81;72.45;94484.22;4209610;28;20051;-65
2022/09/01 01:23:01;;;;;;;17.40;15.60;;;;;;;17.70;74.32;94476.91;4197323;28;20113;-65
2022/09/01 01:25:03;;;;;;;18.48;15.68;;;;;;;17.68;74.30;94482.44;4211637;28;20040;-65
2022/09/01 01:27:05;;;;;;;21.20;16.95;;;;;;;17.67;74.46;94474.69;4211555;28;20052;-65
2022/09/01 01:29:08;;;;;;;20.70;16.25;;;;;;;17.69;74.48;94475.28;4211928;28;20105;-65
2022/09/01 01:31:51;;;;;;;20.40;16.88;;;;;;;17.85;74.23;94476.69;4210773;28;20055;-65
2022/09/01 01:33:55;;;;;;;21.13;15.85;;;;;;;18.04;73.42;94469.69;4193472;28;20055;-66
2022/09/01 01:35:58;;;;;;;19.25;15.68;;;;;;;18.19;72.80;94478.16;4208260;28;20067;-59
2022/09/01 01:38:03;;;;;;;18.17;15.13;;;;;;;18.33;71.97;94479.75;4206788;28;20052;-60
2022/09/01 01:40:05;;;;;;;;;;;;;;;18.49;71.77;94474.94;4208754;28;20062;-59
2022/09/01 01:42:08;;;;;;;19.00;15.25;;;;;;;18.60;71.27;94476.91;4213967;28;19927;-58
2022/09/01 01:44:12;;;;;;;15.48;13.88;;;;;;;18.73;70.70;94481.31;4211361;28;20461;-60
2022/09/01 01:46:13;;;;;;;;;;;;;;;18.81;70.58;94479.25;4211041;28;20078;-65
2022/09/01 01:48:22;;;;;;;19.58;14.90;;;;;;;18.87;70.47;94487.41;4209953;28;19920;-66
2022/09/01 01:50:29;;;;;;;20.15;14.52;;;;;;;18.90;70.22;94484.31;4194836;28;20445;-65
2022/09/01 01:52:33;;;;;;;16.40;13.95;;;;;;;18.88;70.17;94486.34;4208441;28;20086;-66
2022/09/01 01:54:38;;;;;;;17.70;14.60;;;;;;;18.89;70.19;94490.66;4211247;28;20131;-66
2022/09/01 01:56:40;;;;;;;14.90;13.38;;;;;;;18.92;70.00;94493.66;4211157;28;20056;-64
2022/09/01 01:58:43;;;;;;;18.40;14.25;;;;;;;18.95;70.01;94490.59;4211754;28;20068;-65
2022/09/01 02:00:47;;;;;;;17.63;14.73;;;;;;;18.99;69.84;94494.44;4209091;28;20056;-63
2022/09/01 02:02:52;;;;;;;18.17;14.45;;;;;;;19.02;69.65;94495.84;4210205;28;20044;-66
2022/09/01 02:04:54;;;;;;;17.00;14.60;;;;;;;19.06;69.70;94504.19;4210823;28;20052;-65
2022/09/01 02:06:56;;;;;;;16.95;14.45;;;;;;;19.09;69.64;94507.22;4209249;28;20113;-67
2022/09/01 02:09:01;;;;;;;20.42;14.32;;;;;;;19.10;69.37;94510.69;4202020;28;20056;-65
2022/09/01 02:11:05;;;;;;;17.13;13.30;;;;;;;19.15;69.08;94508.22;4205890;28;20052;-65
2022/09/01 02:13:07;;;;;;;15.50;13.65;;;;;;;19.16;68.79;94504.50;4198457;28;20484;-64
2022/09/01 02:15:11;;;;;;;16.08;13.77;;;;;;;19.18;68.80;94495.28;4210837;28;20056;-65
2022/09/01 02:17:13;;;;;;;15.77;13.48;;;;;;;19.18;68.74;94499.81;4199338;28;20200;-65
2022/09/01 02:19:18;;;;;;;17.90;14.25;;;;;;;19.17;68.64;94499.00;4199820;28;20074;-65
2022/09/01 02:21:22;;;;;;;18.15;13.73;;;;;;;19.08;68.84;94500.31;4204732;28;20048;-64
2022/09/01 02:23:24;;;;;;;22.13;15.07;;;;;;;18.93;69.13;94507.75;4208564;28;20454;-63
2022/09/01 02:25:26;;;;;;;19.15;14.77;;;;;;;18.56;70.17;94504.91;4198787;28;20184;-65
2022/09/01 02:27:28;;;;;;;17.33;14.20;;;;;;;18.46;71.01;94508.03;4207798;28;20101;-66
2022/09/01 02:29:30;;;;;;;19.15;14.65;;;;;;;18.31;70.47;94504.84;4209346;28;20056;-65
2022/09/01 02:31:40;;;;;;;17.95;14.80;;;;;;;18.19;71.27;94494.88;4209536;28;20082;-64
2022/09/01 02:33:45;;;;;;;17.67;15.32;;;;;;;18.26;71.46;94500.16;4210886;28;20466;-65
2022/09/01 02:35:54;;;;;;;17.60;14.10;;;;;;;18.28;70.62;94495.44;4210214;28;20056;-63
2022/09/01 02:37:59;;;;;;;19.00;14.43;;;;;;;18.30;70.11;94496.06;4209839;28;20109;-64
2022/09/01 02:40:01;;;;;;;19.38;15.75;;;;;;;18.37;69.95;94493.41;4215350;28;20101;-65
2022/09/01 02:42:03;;;;;;;17.08;13.40;;;;;;;18.44;69.36;94491.50;4209366;28;20049;-65
2022/09/01 02:44:10;;;;;;;17.92;13.93;;;;;;;18.46;68.85;94486.81;4197421;28;20048;-65
2022/09/01 02:46:13;;;;;;;17.92;13.85;;;;;;;18.49;68.86;94488.22;4193683;28;20063;-65
2022/09/01 02:48:17;;;;;;;15.23;13.40;;;;;;;18.50;68.75;94488.00;4209635;28;20105;-65
2022/09/01 02:50:20;;;;;;;19.00;14.00;;;;;;;18.52;68.81;94490.44;4200212;28;20075;-66
2022/09/01 02:52:22;;;;;;;18.23;14.88;;;;;;;18.56;68.81;94481.84;4193551;28;20044;-65
2022/09/01 02:54:25;;;;;;;16.80;14.48;;;;;;;18.62;68.74;94480.97;4194402;28;20048;-65
2022/09/01 02:56:26;;;;;;;19.60;13.60;;;;;;;18.69;68.44;94480.13;4207471;28;20256;-65
2022/09/01 02:58:33;;;;;;;18.80;14.73;;;;;;;18.74;68.34;94482.97;4195010;28;20044;-63
2022/09/01 03:00:38;;;;;;;17.52;14.30;;;;;;;18.78;67.73;94474.38;4193968;28;20051;-64
2022/09/01 03:02:40;;;;;;;15.23;13.68;;;;;;;18.79;67.28;94486.63;4194543;28;20044;-64
2022/09/01 03:04:42;;;;;;;18.65;13.00;;;;;;;18.77;67.44;94483.34;4195401;28;20045;-65
2022/09/01 03:06:45;;;;;;;18.67;13.63;;;;;;;18.79;67.40;94493.78;4210526;28;20048;-65
2022/09/01 03:08:53;;;;;;;15.30;13.63;;;;;;;18.82;67.44;94488.84;4201029;28;20080;-65
2022/09/01 03:11:00;;;;;;;18.20;12.90;;;;;;;18.85;67.24;94478.84;4207390;28;20056;-67
2022/09/01 03:13:05;;;;;;;16.60;13.60;;;;;;;18.83;67.21;94485.16;4198297;28;20113;-64
2022/09/01 03:15:07;;;;;;;17.42;14.45;;;;;;;18.83;67.08;94485.16;4210680;28;20052;-65
2022/09/01 03:17:13;;;;;;;16.95;13.68;;;;;;;18.83;67.32;94477.19;4199782;28;20267;-64
2022/09/01 03:19:17;;;;;;;15.50;13.45;;;;;;;18.81;67.40;94476.59;4211437;28;20047;-65
2022/09/01 03:21:20;;;;;;;18.50;13.43;;;;;;;18.82;67.35;94480.06;4213594;28;20048;-64
2022/09/01 03:23:24;;;;;;;20.55;13.65;;;;;;;18.78;67.38;94485.00;4205167;28;20135;-64
2022/09/01 03:25:28;;;;;;;21.05;14.80;;;;;;;18.58;67.48;94479.81;4199244;28;20441;-66
2022/09/01 03:27:30;;;;;;;21.40;14.27;;;;;;;18.52;67.92;94487.78;4211271;28;20128;-66
2022/09/01 03:29:32;;;;;;;18.38;13.90;;;;;;;18.41;67.90;94492.75;4197406;28;20538;-65
2022/09/01 03:31:34;;;;;;;16.20;13.82;;;;;;;18.24;68.59;94493.44;4212957;28;20144;-65
2022/09/01 03:33:36;;;;;;;18.00;14.15;;;;;;;18.09;69.09;94493.72;4213453;28;20469;-66
2022/09/01 03:35:38;;;;;;;25.65;14.63;;;;;;;18.09;69.88;94491.88;4207839;28;20052;-65
2022/09/01 03:37:43;;;;;;;22.40;14.57;;;;;;;18.12;69.32;94494.09;4200680;28;20472;-65
2022/09/01 03:39:45;;;;;;;17.75;14.05;;;;;;;18.19;69.19;94491.44;4211341;28;20082;-65
2022/09/01 03:41:50;;;;;;;21.35;13.35;;;;;;;18.24;69.13;94488.97;4210052;28;20070;-64
2022/09/01 03:43:56;;;;;;;21.95;12.82;;;;;;;18.22;68.45;94488.38;4211988;28;20441;-65
2022/09/01 03:45:59;;;;;;;20.48;13.52;;;;;;;18.17;68.18;94488.16;4206960;28;20057;-65
2022/09/01 03:48:07;;;;;;;15.83;14.17;;;;;;;18.07;68.19;94493.94;4196737;28;20055;-66
2022/09/01 03:50:19;;;;;;;21.67;14.18;;;;;;;17.93;68.67;94487.84;4198481;28;20443;-67
2022/09/01 03:52:24;;;;;;;17.13;14.88;;;;;;;17.80;69.02;94495.81;4207041;28;20056;-65
2022/09/01 03:54:27;;;;;;;18.90;14.48;;;;;;;17.53;69.32;94492.41;4197447;28;20052;-65
2022/09/01 03:56:29;;;;;;;20.17;14.10;;;;;;;17.08;70.83;94492.25;4197151;28;20055;-64
2022/09/01 03:58:31;;;;;;;18.92;14.60;;;;;;;16.89;71.95;94493.91;4209741;28;20055;-64
2022/09/01 04:00:43;;;;;;;19.00;15.63;;;;;;;16.91;72.29;94484.75;4203463;28;20067;-63
2022/09/01 04:02:51;;;;;;;22.08;14.60;;;;;;;16.87;71.87;94490.66;4211172;28;20082;-64
2022/09/01 04:04:57;;;;;;;22.38;14.57;;;;;;;16.60;72.94;94498.50;4197844;28;20051;-65
2022/09/01 04:06:59;;;;;;;22.45;17.15;;;;;;;16.28;74.78;94500.06;4203620;28;20256;-65
2022/09/01 04:09:04;;;;;;;22.63;17.85;;;;;;;16.07;76.56;94498.41;4213019;28;20105;-65
2022/09/01 04:11:17;;;;;;;23.05;17.77;;;;;;;15.84;78.28;94509.25;4212650;28;20117;-66
2022/09/01 04:13:22;;;;;;;23.45;18.60;;;;;;;15.83;78.66;94504.97;4212621;28;20052;-65
2022/09/01 04:15:26;;;;;;;25.80;18.92;;;;;;;15.81;78.80;94510.47;4212333;28;20775;-64
2022/09/01 04:19:48;;;;;;;25.90;20.17;;;;;;;15.94;78.71;94499.97;4213178;28;20044;-65
2022/09/01 04:21:55;;;;;;;30.90;19.35;;;;;;;16.13;78.22;94490.50;4212700;28;20113;-65
2022/09/01 04:23:58;;;;;;;25.00;19.45;;;;;;;16.14;77.40;94500.03;4198042;28;20265;-67
2022/09/01 04:26:07;;;;;;;;;;;;;;;16.20;76.94;94492.31;4198270;28;20048;-65
2022/09/01 04:28:21;;;;;;;26.13;19.20;;;;;;;16.22;77.61;94493.75;4211547;28;19979;-70
2022/09/01 04:30:30;;;;;;;25.27;19.25;;;;;;;16.49;76.91;94484.06;4199628;28;20500;-60
2022/09/01 04:32:33;;;;;;;25.20;17.65;;;;;;;16.73;75.59;94490.59;4196561;28;20098;-59
2022/09/01 04:34:37;;;;;;;22.55;18.13;;;;;;;16.99;74.77;94492.50;4197634;28;20102;-59
2022/09/01 04:36:41;;;;;;;23.85;18.77;;;;;;;17.18;73.39;94485.53;4200987;28;20048;-58
2022/09/01 04:38:43;;;;;;;21.17;17.92;;;;;;;17.29;72.99;94484.09;4202012;28;20054;-59
2022/09/01 04:40:44;;;;;;;26.35;19.00;;;;;;;17.43;72.28;94490.22;4200853;28;20056;-59
2022/09/01 04:42:46;;;;;;;19.80;17.60;;;;;;;17.54;71.83;94492.22;4215265;28;20086;-64
2022/09/01 04:44:49;;;;;;;22.80;18.40;;;;;;;17.68;71.70;94493.03;4199065;28;20051;-67
2022/09/01 04:46:51;;;;;;;23.80;18.40;;;;;;;17.74;71.09;94496.66;4209011;28;20557;-67
2022/09/01 04:48:54;;;;;;;25.55;18.10;;;;;;;17.74;71.07;94488.72;4196455;28;20109;-71
2022/09/01 04:50:57;;;;;;;25.42;17.80;;;;;;;17.72;71.05;94496.03;4201442;28;20048;-68
2022/09/01 04:53:00;;;;;;;22.63;17.30;;;;;;;17.82;70.98;94496.47;4195960;28;20575;-66
2022/09/01 04:55:02;;;;;;;26.95;17.92;;;;;;;17.90;70.56;94493.59;4196437;28;20543;-66
2022/09/01 04:57:05;;;;;;;27.70;17.90;;;;;;;17.92;70.39;94493.38;4199280;28;20056;-66
2022/09/01 04:59:09;;;;;;;25.80;18.35;;;;;;;17.96;70.40;94482.16;4204394;28;20424;-66
2022/09/01 05:01:29;;;;;;;22.13;17.10;;;;;;;17.70;71.04;94487.50;4195678;28;20059;-66
2022/09/01 05:03:30;;;;;;;21.30;18.02;;;;;;;17.54;71.89;94489.56;4200469;28;20120;-66
2022/09/01 05:05:44;;;;;;;26.00;19.02;;;;;;;17.64;72.27;94489.16;4204514;28;20068;-67
2022/09/01 05:07:45;;;;;;;22.98;18.48;;;;;;;17.79;71.49;94492.38;4205760;28;20570;-67
2022/09/01 05:09:48;;;;;;;22.58;17.88;;;;;;;17.94;71.03;94483.38;4194979;28;20051;-65
2022/09/01 05:11:50;;;;;;;22.98;17.77;;;;;;;18.11;70.57;94489.00;4203433;28;20055;-66
2022/09/01 05:13:56;;;;;;;24.17;18.80;;;;;;;18.30;69.94;94488.09;4211597;28;20514;-64
2022/09/01 05:16:05;;;;;;;27.45;18.50;;;;;;;18.49;69.45;94475.75;4211122;28;20396;-59
2022/09/01 05:18:08;;;;;;;23.35;16.50;;;;;;;18.61;69.03;94482.03;4211043;28;20648;-62
2022/09/01 05:20:11;;;;;;;26.88;17.48;;;;;;;18.73;68.30;94479.47;4211321;28;20466;-59
2022/09/01 05:22:14;;;;;;;21.67;16.70;;;;;;;18.86;68.15;94475.16;4210337;28;20197;-60
2022/09/01 05:24:18;;;;;;;23.00;18.65;;;;;;;18.95;67.75;94479.97;4211412;28;20055;-61
2022/09/01 05:26:24;;;;;;;21.70;18.30;;;;;;;18.97;67.65;94483.25;4211007;28;20052;-61
2022/09/01 05:28:27;;;;;;;21.23;18.13;;;;;;;19.06;67.76;94480.28;4211842;28;20048;-59
2022/09/01 05:30:29;;;;;;;20.95;17.08;;;;;;;19.14;67.46;94480.81;4211431;28;20052;-60
2022/09/01 05:32:32;;;;;;;21.70;17.00;;;;;;;19.08;67.48;94472.91;4210828;28;20052;-61
2022/09/01 05:34:36;;;;;;;21.65;18.17;;;;;;;18.89;68.16;94478.19;4211939;28;20068;-59
2022/09/01 05:36:41;;;;;;;29.95;18.42;;;;;;;18.59;69.37;94477.97;4211598;28;20055;-62
2022/09/01 05:38:43;;;;;;;22.92;17.77;;;;;;;18.58;69.64;94478.97;4209481;28;20075;-61
2022/09/01 05:40:56;;;;;;;24.88;18.88;;;;;;;18.73;69.62;94481.31;4205618;28;20113;-59
2022/09/01 05:42:59;;;;;;;24.13;19.35;;;;;;;18.86;68.95;94477.78;4208047;28;20407;-59
2022/09/01 05:45:01;;;;;;;30.55;18.92;;;;;;;18.93;68.87;94479.38;4213843;28;20047;-60
2022/09/01 05:47:05;;;;;;;24.80;19.98;;;;;;;18.97;68.44;94477.94;4211509;28;20055;-59
2022/09/01 05:49:12;;;;;;;28.17;20.33;;;;;;;18.94;68.46;94480.19;4195280;28;20053;-59
2022/09/01 05:51:18;;;;;;;26.80;19.85;;;;;;;18.94;68.64;94481.00;4203186;28;20048;-61
2022/09/01 05:53:41;;;;;;;23.63;20.13;;;;;;;18.89;68.78;94480.03;4210319;28;20052;-61
2022/09/01 05:55:45;;;;;;;29.95;21.00;;;;;;;18.71;69.93;94488.69;4208729;28;20567;-60
2022/09/01 05:57:46;;;;;;;29.02;21.63;;;;;;;18.79;69.75;94494.56;4211276;28;20476;-59
2022/09/01 05:59:52;;;;;;;26.85;21.25;;;;;;;18.91;69.63;94486.75;4211195;28;20068;-61
2022/09/01 06:01:55;;;;;;;31.75;20.88;;;;;;;18.98;69.18;94484.84;4207623;28;20510;-61
2022/09/01 06:03:57;;;;;;;27.90;21.27;;;;;;;18.93;69.40;94482.03;4195688;28;20489;-59
2022/09/01 06:06:07;;;;;;;29.43;21.73;;;;;;;19.03;69.12;94477.03;4205429;28;20048;-59
2022/09/01 06:08:09;;;;;;;33.03;21.13;;;;;;;19.15;69.09;94474.50;4210019;28;20412;-60
2022/09/01 06:10:13;;;;;;;30.08;22.35;;;;;;;19.30;68.52;94463.53;4210537;28;20048;-60
2022/09/01 06:12:19;;;;;;;27.08;21.30;;;;;;;19.11;69.14;94468.00;4210493;28;20048;-60
2022/09/01 06:14:20;;;;;;;28.83;22.85;;;;;;;19.00;69.48;94466.88;4209595;28;20052;-60
2022/09/01 06:16:23;;;;;;;27.40;22.88;;;;;;;18.73;70.61;94468.88;4209734;28;20562;-62
2022/09/01 06:18:26;;;;;;;36.03;21.65;;;;;;;18.84;70.68;94467.38;4210182;28;20059;-60
2022/09/01 06:20:28;;;;;;;28.42;21.33;;;;;;;18.95;70.53;94465.88;4209827;28;20101;-60
2022/09/01 06:22:30;;;;;;;32.10;23.38;;;;;;;18.99;70.61;94472.38;4209298;28;20496;-60
2022/09/01 06:24:32;;;;;;;33.90;23.63;;;;;;;18.99;70.37;94464.41;4211009;28;20458;-60
2022/09/01 06:26:35;;;;;;;34.53;24.90;;;;;;;18.94;70.82;94462.41;4210999;28;20056;-59
2022/09/01 06:28:40;;;;;;;31.20;23.60;;;;;;;19.15;70.62;94468.38;4210915;28;20063;-61
2022/09/01 06:30:45;;;;;;;30.10;24.33;;;;;;;19.24;70.14;94462.56;4210102;28;20048;-60
2022/09/01 06:32:48;;;;;;;32.63;24.48;;;;;;;19.45;69.84;94463.19;4210414;28;20048;-60
2022/09/01 06:34:50;;;;;;;31.35;25.17;;;;;;;19.61;69.24;94462.59;4211112;28;20606;-62
2022/09/01 06:36:52;;;;;;;35.58;25.45;;;;;;;19.61;69.08;94467.13;4209888;28;20055;-60
2022/09/01 06:38:54;;;;;;;33.75;24.58;;;;;;;19.65;68.89;94458.47;4209281;28;20109;-59
2022/09/01 06:41:00;;;;;;;31.80;24.90;;;;;;;19.73;68.57;94461.94;4210836;28;20040;-59
2022/09/01 06:43:06;;;;;;;31.58;24.52;;;;;;;19.64;68.75;94462.19;4210837;28;20048;-68
2022/09/01 06:45:09;;;;;;;35.72;24.45;;;;;;;19.70;68.56;94465.81;4210995;28;20489;-65
2022/09/01 06:47:11;;;;;;;33.85;22.73;;;;;;;19.72;68.24;94462.94;4209532;28;20101;-68
2022/09/01 06:49:12;;;;;;;29.38;23.88;;;;;;;19.79;68.23;94469.03;4211230;28;20056;-69
2022/09/01 06:51:19;;;;;;;34.70;24.67;;;;;;;19.69;68.57;94466.03;4211516;28;20044;-65
2022/09/01 06:53:22;;;;;;;34.53;25.30;;;;;;;19.54;69.48;94467.19;4212873;28;20071;-66
2022/09/01 06:55:40;;;;;;;34.92;25.88;;;;;;;19.61;68.89;94462.59;4213968;28;20043;-66
2022/09/01 06:57:53;;;;;;;37.13;26.48;;;;;;;19.52;69.34;94453.31;4213499;28;20538;-66
2022/09/01 07:00:19;;;;;;;35.83;26.33;;;;;;;19.49;69.81;94461.72;4202038;28;20075;-65
2022/09/01 07:02:21;;;;;;;41.00;27.77;;;;;;;19.34;70.27;94462.09;4205829;28;20481;-64
2022/09/01 07:04:29;;;;;;;35.70;27.10;;;;;;;19.42;70.39;94460.97;4210674;28;20059;-66
2022/09/01 07:06:30;;;;;;;34.88;25.88;;;;;;;19.67;69.44;94466.25;4200383;28;20102;-67
2022/09/01 07:08:57;;;;;;;37.95;26.75;;;;;;;19.76;68.72;94469.44;4203761;28;20144;-69
2022/09/01 07:11:27;;;;;;;37.95;27.50;;;;;;;19.66;68.98;94461.97;4200810;28;20047;-66
2022/09/01 07:13:57;;;;;;;40.22;27.77;;;;;;;19.40;70.03;94463.03;4212664;28;20087;-65
2022/09/01 07:16:21;;;;;;;40.20;28.50;;;;;;;19.57;69.57;94460.63;4213060;28;20140;-66
2022/09/01 07:18:35;;;;;;;37.28;28.73;;;;;;;19.77;68.90;94461.25;4213942;28;20109;-67
2022/09/01 07:20:40;;;;;;;38.53;26.70;;;;;;;19.73;69.12;94465.38;4213244;28;20109;-68
2022/09/01 07:23:02;;;;;;;34.65;25.92;;;;;;;19.81;68.61;94466.91;4213236;28;20419;-65
2022/09/01 07:25:23;;;;;;;34.13;24.75;;;;;;;19.93;68.44;94465.16;4213447;28;20079;-69
2022/09/01 07:27:49;;;;;;;37.50;25.30;;;;;;;20.13;67.86;94456.13;4212983;28;20083;-67
2022/09/01 07:29:51;;;;;;;42.03;26.48;;;;;;;20.40;66.99;94457.41;4207253;28;20055;-68
2022/09/01 07:31:54;;;;;;;37.38;27.52;;;;;;;20.51;66.25;94460.34;4204208;28;20094;-67
2022/09/01 07:34:16;;;;;;;40.35;26.90;;;;;;;20.37;66.40;94465.00;4200100;28;20076;-68
2022/09/01 07:36:42;;;;;;;38.97;27.38;;;;;;;20.59;65.97;94458.19;4205602;28;20049;-68
2022/09/01 07:39:04;;;;;;;40.05;27.80;;;;;;;20.73;65.60;94460.66;4198945;28;20052;-59
2022/09/01 07:41:27;;;;;;;37.58;27.33;;;;;;;20.75;65.21;94455.91;4205898;28;20102;-69
2022/09/01 07:43:54;;;;;;;37.22;26.65;;;;;;;20.87;65.48;94454.09;4211370;28;20079;-67
2022/09/01 07:45:58;;;;;;;37.72;25.17;;;;;;;21.17;65.28;94453.22;4213504;28;20101;-66
2022/09/01 07:48:02;;;;;;;35.83;27.10;;;;;;;21.47;64.27;94453.13;4210764;28;20054;-69
2022/09/01 07:50:07;;;;;;;41.05;26.40;;;;;;;21.75;63.50;94455.06;4212887;28;20047;-69
2022/09/01 07:52:30;;;;;;;38.58;27.75;;;;;;;21.93;62.54;94458.63;4211535;28;20101;-68
2022/09/01 07:54:33;;;;;;;42.60;26.30;;;;;;;22.07;61.95;94463.47;4211975;28;20060;-67
2022/09/01 07:56:36;;;;;;;36.35;27.17;;;;;;;22.15;60.92;94461.47;4208901;28;20059;-66
2022/09/01 07:58:40;;;;;;;40.85;25.90;;;;;;;22.20;61.09;94464.22;4212067;28;20088;-66
2022/09/01 08:00:46;;;;;;;34.45;26.33;;;;;;;22.31;60.48;94462.63;4211717;28;20044;-65
2022/09/01 08:02:50;;;;;;;42.08;25.85;;;;;;;22.31;60.63;94467.94;4210990;28;20084;-65
2022/09/01 08:04:57;;;;;;;36.85;26.63;;;;;;;22.20;61.17;94466.88;4210640;28;20040;-67
2022/09/01 08:07:00;;;;;;;39.38;25.95;;;;;;;22.18;61.43;94461.81;4210061;28;20724;-70
2022/09/01 08:09:04;;;;;;;37.43;27.63;;;;;;;22.27;60.83;94456.94;4213125;28;20066;-66
2022/09/01 08:11:07;;;;;;;37.03;26.73;;;;;;;22.33;60.52;94464.00;4212434;28;20121;-66
2022/09/01 08:13:09;;;;;;;40.23;26.97;;;;;;;22.40;60.75;94472.66;4212705;28;20442;-68
2022/09/01 08:15:16;;;;;;;38.92;26.02;;;;;;;22.58;60.02;94455.63;4209067;28;20083;-67
2022/09/01 08:17:38;;;;;;;41.40;26.40;;;;;;;22.79;60.01;94456.81;4196810;28;20076;-70
2022/09/01 08:19:56;;;;;;;33.35;26.02;;;;;;;22.96;59.06;94456.03;4196825;28;20512;-65
2022/09/01 08:21:57;;;;;;;35.50;26.15;;;;;;;22.36;60.43;94460.84;4195743;28;20114;-66
2022/09/01 08:23:59;;;;;;;36.50;26.05;;;;;;;22.06;61.04;94469.03;4209582;28;20105;-68
2022/09/01 08:26:05;;;;;;;39.00;26.23;;;;;;;22.11;60.83;94457.63;4211677;28;20048;-68
2022/09/01 08:28:07;;;;;;;31.48;22.38;;;;;;;22.25;60.17;94456.34;4212657;28;20060;-68
2022/09/01 08:30:11;;;;;;;40.95;23.85;;;;;;;22.42;59.42;94453.75;4209924;28;20079;-67
2022/09/01 08:32:13;;;;;;;32.22;22.98;;;;;;;22.60;59.35;94447.38;4207167;28;20093;-66
2022/09/01 08:34:15;;;;;;;34.92;24.05;;;;;;;22.83;58.83;94449.13;4210228;28;20491;-69
2022/09/01 08:36:17;;;;;;;33.38;23.17;;;;;;;22.96;58.21;94437.31;4210264;28;20048;-67
2022/09/01 08:38:26;;;;;;;30.10;22.70;;;;;;;23.19;58.16;94439.03;4210681;28;20135;-68
2022/09/01 08:40:29;;;;;;;28.67;22.33;;;;;;;23.34;57.73;94441.13;4210363;28;20045;-67
2022/09/01 08:42:39;;;;;;;31.75;22.88;;;;;;;23.24;57.00;94439.94;4212211;28;20067;-71
2022/09/01 08:44:47;;;;;;;30.13;22.27;;;;;;;23.38;56.68;94439.59;4202810;28;20056;-67
2022/09/01 08:46:55;;;;;;;34.53;22.13;;;;;;;23.29;56.64;94442.66;4206498;28;20622;-68
2022/09/01 08:48:58;;;;;;;28.25;21.45;;;;;;;23.48;56.80;94435.19;4198851;28;20643;-70
2022/09/01 08:51:49;;;;;;;31.88;21.17;;;;;;;23.69;55.37;94430.13;4210792;28;20079;-60
2022/09/01 08:53:57;;;;;;;28.33;19.90;;;;;;;23.94;55.13;94431.53;4196116;28;20888;-60
2022/09/01 08:55:59;;;;;;;27.20;19.63;;;;;;;23.92;55.48;94427.25;4203796;28;20047;-61
2022/09/01 08:58:00;;;;;;;30.42;19.10;;;;;;;24.01;55.07;94421.47;4210872;28;20044;-60
2022/09/01 09:00:09;;;;;;;27.48;19.65;;;;;;;24.13;54.67;94419.47;4195793;28;20532;-60
2022/09/01 09:02:50;;;;;;;22.92;18.45;;;;;;;24.23;54.81;94411.56;4195668;28;20110;-61
2022/09/01 09:05:08;;;;;;;25.45;19.35;;;;;;;24.24;53.21;94407.00;4211933;28;20130;-61
2022/09/01 09:07:38;;;;;;;23.83;18.55;;;;;;;23.97;54.15;94405.09;4209390;28;20678;-62
2022/09/01 09:09:52;;;;;;;26.40;19.50;;;;;;;23.91;55.08;94404.22;4209153;28;20113;-58
2022/09/01 09:12:05;;;;;;;24.45;20.25;;;;;;;23.82;55.29;94404.94;4203138;28;20044;-61
2022/09/01 09:14:33;;;;;;;29.40;20.00;;;;;;;23.65;55.59;94407.63;4209461;28;20499;-61
2022/09/01 09:16:39;;;;;;;25.90;18.75;;;;;;;23.93;55.27;94406.66;4200234;28;20094;-60
2022/09/01 09:18:48;;;;;;;22.35;17.15;;;;;;;24.24;54.50;94404.31;4211726;28;20059;-61
2022/09/01 09:21:04;;;;;;;22.90;16.17;;;;;;;24.53;53.42;94405.72;4210605;28;20048;-60
2022/09/01 09:23:15;;;;;;;22.15;17.23;;;;;;;24.40;52.54;94398.09;4193093;28;20075;-63
2022/09/01 09:25:17;;;;;;;24.33;17.70;;;;;;;24.19;53.10;94397.06;4210465;28;20216;-61
2022/09/01 09:27:32;;;;;;;30.67;17.38;;;;;;;24.24;52.98;94393.63;4208317;28;20048;-60
2022/09/01 09:29:34;;;;;;;21.13;15.93;;;;;;;24.38;52.04;94394.03;4211491;28;20055;-61
2022/09/01 09:31:42;;;;;;;23.70;17.17;;;;;;;23.99;52.79;94397.63;4211403;28;20056;-62
2022/09/01 09:33:46;;;;;;;23.42;16.50;;;;;;;24.17;52.57;94387.66;4211797;28;20060;-60
2022/09/01 09:35:56;;;;;;;24.85;16.73;;;;;;;24.40;52.01;94392.72;4211555;28;20040;-60
2022/09/01 09:41:04;;;;;;;21.92;15.95;;;;;;;24.93;51.57;94384.94;4194908;28;20063;-64
2022/09/01 09:43:22;;;;;;;22.13;15.65;;;;;;;25.22;51.00;94379.25;4210484;28;20052;-61
2022/09/01 09:45:39;;;;;;;24.85;16.50;;;;;;;25.51;50.15;94377.84;4210059;28;20508;-62
2022/09/01 09:47:45;;;;;;;23.48;17.20;;;;;;;25.75;49.66;94388.94;4212812;28;20048;-63
2022/09/01 09:49:47;;;;;;;27.38;17.55;;;;;;;25.86;49.03;94378.25;4211883;28;20048;-61
2022/09/01 09:51:54;;;;;;;22.38;16.98;;;;;;;25.91;49.14;94383.66;4209473;28;20075;-66